sensor_id;sensor_type;location;lat;lon;timestamp;pressure;altitude;pressure_sealevel;temperature;humidity
54439;BME280;40347;53.848;27.498;2023-08-24T00:00:26;1013.7;;;17.6;65.6
54439;BME280;40347;53.848;27.498;2023-08-24T00:05:26;1013.7;;;17.5;66.2
54439;BME280;40347;53.848;27.498;2023-08-24T00:10:42;1013.8;;;17.4;66.6
54439;BME280;40347;53.848;27.498;2023-08-24T00:15:46;1013.8;;;17.4;66.6
54439;BME280;40347;53.848;27.498;2023-08-24T00:20:44;1013.8;;;17.4;66.9
54439;BME280;40347;53.848;27.498;2023-08-24T00:26:01;1013.7;;;17.3;66.5
54439;BME280;40347;53.848;27.498;2023-08-24T00:30:26;1013.7;;;17.3;67
54439;BME280;40347;53.848;27.498;2023-08-24T00:35:47;1013.6;;;17.2;67.1
54439;BME280;40347;53.848;27.498;2023-08-24T00:40:35;1013.6;;;17.2;67.1
54439;BME280;40347;53.848;27.498;2023-08-24T00:45:40;1013.6;;;17.1;67.4
54439;BME280;40347;53.848;27.498;2023-08-24T00:50:26;1013.6;;;17.2;66.9
54439;BME280;40347;53.848;27.498;2023-08-24T00:55:42;1013.7;;;17.1;67.1
54439;BME280;40347;53.848;27.498;2023-08-24T01:00:26;1013.6;;;17.1;66.9
54439;BME280;40347;53.848;27.498;2023-08-24T01:05:36;1013.6;;;17;67
54439;BME280;40347;53.848;27.498;2023-08-24T01:10:48;1013.7;;;17;67.2
54439;BME280;40347;53.848;27.498;2023-08-24T01:15:42;1013.7;;;17;67.3
54439;BME280;40347;53.848;27.498;2023-08-24T01:20:26;1013.6;;;17;67.1
54439;BME280;40347;53.848;27.498;2023-08-24T01:25:48;1013.6;;;17;67.2
54439;BME280;40347;53.848;27.498;2023-08-24T01:30:26;1013.6;;;16.9;67
54439;BME280;40347;53.848;27.498;2023-08-24T01:35:32;1013.6;;;16.9;67.5
54439;BME280;40347;53.848;27.498;2023-08-24T01:41:02;1013.6;;;17;67.5
54439;BME280;40347;53.848;27.498;2023-08-24T01:45:42;1013.6;;;16.9;67.8
54439;BME280;40347;53.848;27.498;2023-08-24T01:50:58;1013.6;;;17;67.3
54439;BME280;40347;53.848;27.498;2023-08-24T01:55:38;1013.6;;;17;67.6
54439;BME280;40347;53.848;27.498;2023-08-24T02:00:48;1013.6;;;16.9;67.6
54439;BME280;40347;53.848;27.498;2023-08-24T02:05:26;1013.5;;;17;67.9
54439;BME280;40347;53.848;27.498;2023-08-24T02:10:36;1013.5;;;16.9;68
54439;BME280;40347;53.848;27.498;2023-08-24T02:15:26;1013.5;;;17;67.9
54439;BME280;40347;53.848;27.498;2023-08-24T02:20:26;1013.5;;;17;67.5
54439;BME280;40347;53.848;27.498;2023-08-24T02:25:41;1013.5;;;17;67.6
54439;BME280;40347;53.848;27.498;2023-08-24T02:31:00;1013.5;;;17;67.6
54439;BME280;40347;53.848;27.498;2023-08-24T02:35:38;1013.5;;;17.1;67.7
54439;BME280;40347;53.848;27.498;2023-08-24T02:40:26;1013.5;;;17.1;67.5
54439;BME280;40347;53.848;27.498;2023-08-24T02:45:38;1013.4;;;17.1;67.7
54439;BME280;40347;53.848;27.498;2023-08-24T02:50:26;1013.4;;;17;67.5
54439;BME280;40347;53.848;27.498;2023-08-24T02:55:26;1013.4;;;17;67.9
54439;BME280;40347;53.848;27.498;2023-08-24T03:00:54;1013.4;;;17;68
54439;BME280;40347;53.848;27.498;2023-08-24T03:05:52;1013.5;;;17;68.3
54439;BME280;40347;53.848;27.498;2023-08-24T03:10:42;1013.5;;;17;68.5
54439;BME280;40347;53.848;27.498;2023-08-24T03:15:26;1013.4;;;17;68.1
54439;BME280;40347;53.848;27.498;2023-08-24T03:20:40;1013.4;;;17;68.3
54439;BME280;40347;53.848;27.498;2023-08-24T03:25:46;1013.6;;;17.1;68.4
54439;BME280;40347;53.848;27.498;2023-08-24T03:30:26;1013.7;;;17.1;68.6
54439;BME280;40347;53.848;27.498;2023-08-24T03:35:44;1013.7;;;17.2;68.5
54439;BME280;40347;53.848;27.498;2023-08-24T03:40:26;1013.6;;;17.2;68.4
54439;BME280;40347;53.848;27.498;2023-08-24T03:45:48;1013.6;;;17.2;68.3
54439;BME280;40347;53.848;27.498;2023-08-24T03:50:42;1013.7;;;17.2;68.1
54439;BME280;40347;53.848;27.498;2023-08-24T03:55:46;1013.6;;;17.3;68.2
54439;BME280;40347;53.848;27.498;2023-08-24T04:00:40;1013.7;;;17.4;67.9
54439;BME280;40347;53.848;27.498;2023-08-24T04:05:26;1013.7;;;17.5;67.8
54439;BME280;40347;53.848;27.498;2023-08-24T04:10:26;1013.7;;;17.6;67.8
54439;BME280;40347;53.848;27.498;2023-08-24T04:15:52;1013.7;;;17.8;67.4
54439;BME280;40347;53.848;27.498;2023-08-24T04:20:56;1013.7;;;18;67
54439;BME280;40347;53.848;27.498;2023-08-24T04:25:40;1013.7;;;18.3;66.5
54439;BME280;40347;53.848;27.498;2023-08-24T04:30:32;1013.6;;;18.3;65.8
54439;BME280;40347;53.848;27.498;2023-08-24T04:35:52;1013.7;;;18.2;66
54439;BME280;40347;53.848;27.498;2023-08-24T04:40:26;1013.7;;;18.1;66.3
54439;BME280;40347;53.848;27.498;2023-08-24T04:45:26;1013.6;;;18.2;66.7
54439;BME280;40347;53.848;27.498;2023-08-24T04:50:26;1013.5;;;18.5;66
54439;BME280;40347;53.848;27.498;2023-08-24T04:55:26;1013.5;;;18.9;65.3
54439;BME280;40347;53.848;27.498;2023-08-24T05:00:46;1013.6;;;19.2;64.5
54439;BME280;40347;53.848;27.498;2023-08-24T05:05:42;1013.6;;;19.5;63.8
54439;BME280;40347;53.848;27.498;2023-08-24T05:10:26;1013.6;;;19.7;63.6
54439;BME280;40347;53.848;27.498;2023-08-24T05:15:26;1013.6;;;19.8;63.2
54439;BME280;40347;53.848;27.498;2023-08-24T05:20:56;1013.6;;;19.9;62.9
54439;BME280;40347;53.848;27.498;2023-08-24T05:25:58;1013.7;;;20.2;62.7
54439;BME280;40347;53.848;27.498;2023-08-24T05:30:40;1013.8;;;20.3;62.4
54439;BME280;40347;53.848;27.498;2023-08-24T05:35:26;1013.7;;;20.5;61.8
54439;BME280;40347;53.848;27.498;2023-08-24T05:40:40;1013.8;;;20.6;61.2
54439;BME280;40347;53.848;27.498;2023-08-24T05:46:12;1013.8;;;20.8;61.1
54439;BME280;40347;53.848;27.498;2023-08-24T05:50:48;1013.8;;;21;60.5
54439;BME280;40347;53.848;27.498;2023-08-24T05:55:26;1013.8;;;21.3;60.1
54439;BME280;40347;53.848;27.498;2023-08-24T06:00:42;1013.8;;;21.3;60
54439;BME280;40347;53.848;27.498;2023-08-24T06:05:42;1013.8;;;21.4;59.8
54439;BME280;40347;53.848;27.498;2023-08-24T06:10:30;1013.8;;;21.5;59.6
54439;BME280;40347;53.848;27.498;2023-08-24T06:15:40;1013.8;;;21.6;59.5
54439;BME280;40347;53.848;27.498;2023-08-24T06:20:38;1013.8;;;21.8;59.3
54439;BME280;40347;53.848;27.498;2023-08-24T06:25:38;1013.7;;;22.1;58.6
54439;BME280;40347;53.848;27.498;2023-08-24T06:30:36;1013.6;;;22.4;57.7
54439;BME280;40347;53.848;27.498;2023-08-24T06:35:36;1013.6;;;22.6;57.1
54439;BME280;40347;53.848;27.498;2023-08-24T06:40:26;1013.6;;;22.7;56.8
54439;BME280;40347;53.848;27.498;2023-08-24T06:45:50;1013.7;;;22.8;56.5
54439;BME280;40347;53.848;27.498;2023-08-24T06:50:54;1013.7;;;22.8;56.3
54439;BME280;40347;53.848;27.498;2023-08-24T06:55:32;1013.7;;;23;56.1
54439;BME280;40347;53.848;27.498;2023-08-24T07:00:48;1013.8;;;23.1;55.7
54439;BME280;40347;53.848;27.498;2023-08-24T07:05:36;1013.9;;;23.3;55.3
54439;BME280;40347;53.848;27.498;2023-08-24T07:10:48;1013.9;;;23.6;54.8
54439;BME280;40347;53.848;27.498;2023-08-24T07:15:36;1013.9;;;23.6;53.6
54439;BME280;40347;53.848;27.498;2023-08-24T07:20:40;1013.9;;;23.6;53.3
54439;BME280;40347;53.848;27.498;2023-08-24T07:25:26;1013.9;;;23.5;53.7
54439;BME280;40347;53.848;27.498;2023-08-24T07:30:38;1014;;;23.2;53.6
54439;BME280;40347;53.848;27.498;2023-08-24T07:35:26;1014;;;23.1;54.6
54439;BME280;40347;53.848;27.498;2023-08-24T07:40:48;1014;;;23.3;54.2
54439;BME280;40347;53.848;27.498;2023-08-24T07:45:26;1014;;;23.3;53.3
54439;BME280;40347;53.848;27.498;2023-08-24T07:50:32;1014;;;23.5;54
54439;BME280;40347;53.848;27.498;2023-08-24T07:55:40;1014.1;;;23.7;53.1
54439;BME280;40347;53.848;27.498;2023-08-24T08:00:44;1014.1;;;23.8;53.3
54439;BME280;40347;53.848;27.498;2023-08-24T08:05:38;1014.1;;;24;53.1
54439;BME280;40347;53.848;27.498;2023-08-24T08:10:26;1014.1;;;24.2;52.3
54439;BME280;40347;53.848;27.498;2023-08-24T08:15:26;1014;;;24.3;51.3
54439;BME280;40347;53.848;27.498;2023-08-24T08:20:40;1014;;;24.3;51
54439;BME280;40347;53.848;27.498;2023-08-24T08:25:26;1014;;;24.5;50.8
54439;BME280;40347;53.848;27.498;2023-08-24T08:30:40;1014;;;24.6;50.1
54439;BME280;40347;53.848;27.498;2023-08-24T08:35:32;1014;;;24.7;50
54439;BME280;40347;53.848;27.498;2023-08-24T08:40:26;1014;;;24.8;49.9
54439;BME280;40347;53.848;27.498;2023-08-24T08:45:26;1014;;;25;49.6
54439;BME280;40347;53.848;27.498;2023-08-24T08:50:26;1014;;;25;49.4
54439;BME280;40347;53.848;27.498;2023-08-24T08:55:26;1014;;;24.9;48.3
54439;BME280;40347;53.848;27.498;2023-08-24T09:00:36;1014;;;24.6;47.6
54439;BME280;40347;53.848;27.498;2023-08-24T09:05:40;1014;;;24.3;48.7
54439;BME280;40347;53.848;27.498;2023-08-24T09:10:26;1014.1;;;24.2;49
54439;BME280;40347;53.848;27.498;2023-08-24T09:15:52;1014.1;;;24.3;48.9
54439;BME280;40347;53.848;27.498;2023-08-24T09:20:31;1014;;;24.4;48.7
54439;BME280;40347;53.848;27.498;2023-08-24T09:25:26;1014;;;24.7;48
54439;BME280;40347;53.848;27.498;2023-08-24T09:30:49;1014;;;24.8;47.9
54439;BME280;40347;53.848;27.498;2023-08-24T09:35:26;1014;;;24.9;48.3
54439;BME280;40347;53.848;27.498;2023-08-24T09:40:26;1014;;;25.1;47.7
54439;BME280;40347;53.848;27.498;2023-08-24T09:45:47;1014.1;;;25.3;46.8
54439;BME280;40347;53.848;27.498;2023-08-24T09:50:26;1014.1;;;25.2;47.4
54439;BME280;40347;53.848;27.498;2023-08-24T09:56:04;1014.1;;;25.3;47.5
54439;BME280;40347;53.848;27.498;2023-08-24T10:00:26;1014.1;;;25.1;47.4
54439;BME280;40347;53.848;27.498;2023-08-24T10:05:26;1014.1;;;24.6;48.1
54439;BME280;40347;53.848;27.498;2023-08-24T10:10:32;1014.1;;;24.3;48.5
54439;BME280;40347;53.848;27.498;2023-08-24T10:15:26;1014.2;;;24;49.2
54439;BME280;40347;53.848;27.498;2023-08-24T10:20:40;1014.2;;;24;49.3
54439;BME280;40347;53.848;27.498;2023-08-24T10:25:26;1014.2;;;23.8;49.5
54439;BME280;40347;53.848;27.498;2023-08-24T10:30:26;1014.3;;;23.3;50.5
54439;BME280;40347;53.848;27.498;2023-08-24T10:35:50;1014.3;;;22.8;52
54439;BME280;40347;53.848;27.498;2023-08-24T10:40:34;1014.3;;;22.2;52.9
54439;BME280;40347;53.848;27.498;2023-08-24T10:45:56;1014.3;;;21.8;54.2
54439;BME280;40347;53.848;27.498;2023-08-24T10:50:40;1014.3;;;21.3;56.2
54439;BME280;40347;53.848;27.498;2023-08-24T10:56:06;1014.2;;;20.9;58
54439;BME280;40347;53.848;27.498;2023-08-24T11:00:48;1014.1;;;20.5;60.5
54439;BME280;40347;53.848;27.498;2023-08-24T11:06:00;1014.1;;;20.5;63.9
54439;BME280;40347;53.848;27.498;2023-08-24T11:10:44;1014;;;20.7;65
54439;BME280;40347;53.848;27.498;2023-08-24T11:15:54;1014;;;20.6;64.4
54439;BME280;40347;53.848;27.498;2023-08-24T11:20:44;1014;;;20.5;63.7
54439;BME280;40347;53.848;27.498;2023-08-24T11:25:53;1014;;;20.3;64.6
54439;BME280;40347;53.848;27.498;2023-08-24T11:30:40;1013.9;;;20.4;66.2
54439;BME280;40347;53.848;27.498;2023-08-24T11:35:39;1014;;;20.3;66.9
54439;BME280;40347;53.848;27.498;2023-08-24T11:40:36;1014;;;20.2;67.9
54439;BME280;40347;53.848;27.498;2023-08-24T11:45:50;1014;;;20;68.7
54439;BME280;40347;53.848;27.498;2023-08-24T11:50:32;1014;;;19.8;69.1
54439;BME280;40347;53.848;27.498;2023-08-24T11:55:26;1014;;;19.6;70
54439;BME280;40347;53.848;27.498;2023-08-24T12:00:40;1013.9;;;19.6;69.3
54439;BME280;40347;53.848;27.498;2023-08-24T12:06:00;1013.8;;;19.7;69.1
54439;BME280;40347;53.848;27.498;2023-08-24T12:10:56;1013.8;;;19.6;68.2
54439;BME280;40347;53.848;27.498;2023-08-24T12:15:42;1013.8;;;19.7;68.2
54439;BME280;40347;53.848;27.498;2023-08-24T12:20:36;1013.7;;;19.9;67.7
54439;BME280;40347;53.848;27.498;2023-08-24T12:25:26;1013.7;;;20.3;66.2
54439;BME280;40347;53.848;27.498;2023-08-24T12:30:44;1013.6;;;20.9;64.9
54439;BME280;40347;53.848;27.498;2023-08-24T12:35:26;1013.6;;;21.4;63.9
54439;BME280;40347;53.848;27.498;2023-08-24T12:40:46;1013.6;;;22.1;63.5
54439;BME280;40347;53.848;27.498;2023-08-24T12:45:38;1013.5;;;22.5;62.8
54439;BME280;40347;53.848;27.498;2023-08-24T12:50:58;1013.4;;;22.7;61.3
54439;BME280;40347;53.848;27.498;2023-08-24T12:55:26;1013.4;;;22.7;61.2
54439;BME280;40347;53.848;27.498;2023-08-24T13:00:32;1013.3;;;22.4;61.7
54439;BME280;40347;53.848;27.498;2023-08-24T13:05:40;1013.3;;;21.9;61.4
54439;BME280;40347;53.848;27.498;2023-08-24T13:10:40;1013.3;;;21.6;61.7
54439;BME280;40347;53.848;27.498;2023-08-24T13:15:49;1013.3;;;21.3;62.1
54439;BME280;40347;53.848;27.498;2023-08-24T13:20:50;1013.2;;;21.2;62.4
54439;BME280;40347;53.848;27.498;2023-08-24T13:25:40;1013.2;;;21.1;63.2
54439;BME280;40347;53.848;27.498;2023-08-24T13:30:28;1013.2;;;21.1;63.5
54439;BME280;40347;53.848;27.498;2023-08-24T14:21:12;1012.8;;;19.2;66.4
54439;BME280;40347;53.848;27.498;2023-08-24T14:25:50;1012.8;;;19.6;66.6
54439;BME280;40347;53.848;27.498;2023-08-24T14:30:48;1012.7;;;20;66.1
54439;BME280;40347;53.848;27.498;2023-08-24T14:35:26;1012.7;;;20.3;66.1
54439;BME280;40347;53.848;27.498;2023-08-24T14:40:42;1012.7;;;20.5;65.5
54439;BME280;40347;53.848;27.498;2023-08-24T14:45:26;1012.7;;;20.7;64.8
54439;BME280;40347;53.848;27.498;2023-08-24T14:50:52;1012.7;;;20.7;65
54439;BME280;40347;53.848;27.498;2023-08-24T14:55:26;1012.6;;;20.7;65.1
54439;BME280;40347;53.848;27.498;2023-08-24T15:00:30;1012.6;;;20.8;64.7
54439;BME280;40347;53.848;27.498;2023-08-24T15:05:42;1012.6;;;20.8;64.6
54439;BME280;40347;53.848;27.498;2023-08-24T15:10:44;1012.6;;;20.8;64.7
54439;BME280;40347;53.848;27.498;2023-08-24T15:15:34;1012.6;;;20.8;64.9
54439;BME280;40347;53.848;27.498;2023-08-24T15:20:26;1012.6;;;20.8;64.9
54439;BME280;40347;53.848;27.498;2023-08-24T15:25:56;1012.6;;;20.8;64.8
54439;BME280;40347;53.848;27.498;2023-08-24T15:30:52;1012.6;;;20.8;64.6
54439;BME280;40347;53.848;27.498;2023-08-24T15:35:50;1012.6;;;20.7;64.5
54439;BME280;40347;53.848;27.498;2023-08-24T15:41:04;1012.6;;;20.7;64.4
54439;BME280;40347;53.848;27.498;2023-08-24T15:45:27;1012.6;;;20.6;64.2
54439;BME280;40347;53.848;27.498;2023-08-24T15:50:26;1012.6;;;20.5;64.1
54439;BME280;40347;53.848;27.498;2023-08-24T15:55:40;1012.7;;;20.4;64.4
54439;BME280;40347;53.848;27.498;2023-08-24T16:00:38;1012.7;;;20.3;64.7
54439;BME280;40347;53.848;27.498;2023-08-24T16:05:55;1012.7;;;20.3;65
54439;BME280;40347;53.848;27.498;2023-08-24T16:10:26;1012.7;;;20.2;65.3
54439;BME280;40347;53.848;27.498;2023-08-24T16:15:32;1012.6;;;20.2;65.5
54439;BME280;40347;53.848;27.498;2023-08-24T16:20:26;1012.6;;;20.1;66.1
54439;BME280;40347;53.848;27.498;2023-08-24T16:25:26;1012.6;;;19.9;66.3
54439;BME280;40347;53.848;27.498;2023-08-24T16:30:26;1012.5;;;19.9;66.7
54439;BME280;40347;53.848;27.498;2023-08-24T16:35:44;1012.5;;;19.8;66.9
54439;BME280;40347;53.848;27.498;2023-08-24T16:40:26;1012.5;;;19.7;67.3
54439;BME280;40347;53.848;27.498;2023-08-24T16:45:26;1012.5;;;19.7;67.6
54439;BME280;40347;53.848;27.498;2023-08-24T16:50:41;1012.5;;;19.6;68.2
54439;BME280;40347;53.848;27.498;2023-08-24T16:55:32;1012.5;;;19.6;68.7
54439;BME280;40347;53.848;27.498;2023-08-24T17:00:52;1012.5;;;19.6;68.9
54439;BME280;40347;53.848;27.498;2023-08-24T17:05:44;1012.5;;;19.6;68.9
54439;BME280;40347;53.848;27.498;2023-08-24T17:10:38;1012.5;;;19.5;69.2
54439;BME280;40347;53.848;27.498;2023-08-24T17:15:42;1012.4;;;19.5;69.2
54439;BME280;40347;53.848;27.498;2023-08-24T17:20:26;1012.4;;;19.5;69.6
54439;BME280;40347;53.848;27.498;2023-08-24T17:25:32;1012.4;;;19.4;69.8
54439;BME280;40347;53.848;27.498;2023-08-24T17:30:26;1012.4;;;19.4;69.9
54439;BME280;40347;53.848;27.498;2023-08-24T17:35:40;1012.5;;;19.4;70
54439;BME280;40347;53.848;27.498;2023-08-24T17:40:26;1012.5;;;19.3;69.8
54439;BME280;40347;53.848;27.498;2023-08-24T17:45:26;1012.6;;;19.2;70
54439;BME280;40347;53.848;27.498;2023-08-24T17:50:36;1012.7;;;19.1;70.5
54439;BME280;40347;53.848;27.498;2023-08-24T17:55:58;1012.8;;;19;71.1
54439;BME280;40347;53.848;27.498;2023-08-24T18:00:46;1012.8;;;18.9;71.4
54439;BME280;40347;53.848;27.498;2023-08-24T18:05:26;1012.8;;;18.9;71.2
54439;BME280;40347;53.848;27.498;2023-08-24T18:10:40;1012.8;;;18.8;71.7
54439;BME280;40347;53.848;27.498;2023-08-24T18:15:26;1012.9;;;18.8;71.9
54439;BME280;40347;53.848;27.498;2023-08-24T18:20:26;1012.9;;;18.8;72.2
54439;BME280;40347;53.848;27.498;2023-08-24T18:25:32;1012.9;;;18.8;72.3
54439;BME280;40347;53.848;27.498;2023-08-24T18:30:26;1012.9;;;18.9;71.9
54439;BME280;40347;53.848;27.498;2023-08-24T18:35:26;1012.9;;;18.9;72
54439;BME280;40347;53.848;27.498;2023-08-24T18:40:26;1013;;;18.9;71.7
54439;BME280;40347;53.848;27.498;2023-08-24T18:45:26;1013.1;;;19;71.8
54439;BME280;40347;53.848;27.498;2023-08-24T18:50:26;1013.1;;;19;71.8
54439;BME280;40347;53.848;27.498;2023-08-24T18:55:26;1013.1;;;19;71.9
54439;BME280;40347;53.848;27.498;2023-08-24T19:00:59;1013.1;;;19;71.7
54439;BME280;40347;53.848;27.498;2023-08-24T19:05:26;1013;;;18.9;71.7
54439;BME280;40347;53.848;27.498;2023-08-24T19:10:26;1013;;;18.9;72.1
54439;BME280;40347;53.848;27.498;2023-08-24T19:15:26;1013;;;18.9;72.2
54439;BME280;40347;53.848;27.498;2023-08-24T19:20:44;1012.9;;;18.9;72.4
54439;BME280;40347;53.848;27.498;2023-08-24T19:25:36;1012.9;;;18.9;72.8
54439;BME280;40347;53.848;27.498;2023-08-24T19:30:36;1012.9;;;18.9;72.5
54439;BME280;40347;53.848;27.498;2023-08-24T19:35:32;1012.8;;;18.8;72.7
54439;BME280;40347;53.848;27.498;2023-08-24T19:40:30;1012.8;;;18.7;72.8
54439;BME280;40347;53.848;27.498;2023-08-24T19:45:40;1012.9;;;18.7;73.1
54439;BME280;40347;53.848;27.498;2023-08-24T19:50:36;1012.9;;;18.7;73.4
54439;BME280;40347;53.848;27.498;2023-08-24T19:55:48;1012.9;;;18.6;73.6
54439;BME280;40347;53.848;27.498;2023-08-24T20:00:36;1012.8;;;18.6;73.4
54439;BME280;40347;53.848;27.498;2023-08-24T20:05:36;1012.8;;;18.5;73.7
54439;BME280;40347;53.848;27.498;2023-08-24T20:10:32;1012.8;;;18.4;74.1
54439;BME280;40347;53.848;27.498;2023-08-24T20:15:26;1012.8;;;18.3;74.4
54439;BME280;40347;53.848;27.498;2023-08-24T20:20:26;1012.7;;;18.2;74.7
54439;BME280;40347;53.848;27.498;2023-08-24T20:25:42;1012.7;;;18.1;75.1
54439;BME280;40347;53.848;27.498;2023-08-24T20:30:38;1012.7;;;18.2;74.9
54439;BME280;40347;53.848;27.498;2023-08-24T20:35:26;1012.7;;;18.2;75.1
54439;BME280;40347;53.848;27.498;2023-08-24T20:40:54;1012.8;;;18.2;75.1
54439;BME280;40347;53.848;27.498;2023-08-24T20:45:32;1012.8;;;18.3;75.1
54439;BME280;40347;53.848;27.498;2023-08-24T20:50:53;1012.8;;;18.3;75.1
54439;BME280;40347;53.848;27.498;2023-08-24T20:55:46;1012.8;;;18.2;75.1
54439;BME280;40347;53.848;27.498;2023-08-24T21:00:26;1012.8;;;18;75.2
54439;BME280;40347;53.848;27.498;2023-08-24T21:05:36;1012.8;;;17.8;75.7
54439;BME280;40347;53.848;27.498;2023-08-24T21:11:04;1012.8;;;17.7;76.3
54439;BME280;40347;53.848;27.498;2023-08-24T21:15:26;1012.8;;;17.7;76.6
54439;BME280;40347;53.848;27.498;2023-08-24T21:20:26;1012.7;;;17.7;76.6
54439;BME280;40347;53.848;27.498;2023-08-24T21:25:40;1012.8;;;17.6;76.8
54439;BME280;40347;53.848;27.498;2023-08-24T21:30:26;1012.9;;;17.5;76.8
54439;BME280;40347;53.848;27.498;2023-08-24T21:35:44;1012.9;;;17.4;77.2
54439;BME280;40347;53.848;27.498;2023-08-24T21:40:26;1013;;;17.3;77.6
54439;BME280;40347;53.848;27.498;2023-08-24T21:45:26;1013;;;17.3;77.7
54439;BME280;40347;53.848;27.498;2023-08-24T21:50:32;1013;;;17.3;77.7
54439;BME280;40347;53.848;27.498;2023-08-24T21:55:27;1013;;;17.2;78
54439;BME280;40347;53.848;27.498;2023-08-24T22:00:27;1013.1;;;17.1;78.1
54439;BME280;40347;53.848;27.498;2023-08-24T22:05:52;1013;;;17.1;78.2
54439;BME280;40347;53.848;27.498;2023-08-24T22:10:26;1012.9;;;17.1;78
54439;BME280;40347;53.848;27.498;2023-08-24T22:15:26;1012.8;;;17.1;78
54439;BME280;40347;53.848;27.498;2023-08-24T22:20:32;1012.8;;;17.1;77.6
54439;BME280;40347;53.848;27.498;2023-08-24T22:25:46;1012.7;;;17;77.7
54439;BME280;40347;53.848;27.498;2023-08-24T22:30:40;1012.7;;;16.9;77.7
54439;BME280;40347;53.848;27.498;2023-08-24T22:35:50;1012.7;;;17;77.9
54439;BME280;40347;53.848;27.498;2023-08-24T22:40:36;1012.7;;;16.9;78.1
54439;BME280;40347;53.848;27.498;2023-08-24T22:45:36;1012.6;;;16.9;78.2
54439;BME280;40347;53.848;27.498;2023-08-24T22:50:36;1012.5;;;16.8;78.1
54439;BME280;40347;53.848;27.498;2023-08-24T22:55:40;1012.5;;;16.8;78.5
54439;BME280;40347;53.848;27.498;2023-08-24T23:00:27;1012.5;;;16.7;78.5
54439;BME280;40347;53.848;27.498;2023-08-24T23:05:26;1012.5;;;16.7;78.8
54439;BME280;40347;53.848;27.498;2023-08-24T23:11:00;1012.4;;;16.7;78.9
54439;BME280;40347;53.848;27.498;2023-08-24T23:15:26;1012.4;;;16.7;78.8
54439;BME280;40347;53.848;27.498;2023-08-24T23:20:49;1012.3;;;16.7;78.6
54439;BME280;40347;53.848;27.498;2023-08-24T23:25:42;1012.3;;;16.7;78.7
54439;BME280;40347;53.848;27.498;2023-08-24T23:30:46;1012.4;;;16.7;78.9
54439;BME280;40347;53.848;27.498;2023-08-24T23:35:50;1012.5;;;16.7;78.9
54439;BME280;40347;53.848;27.498;2023-08-24T23:41:04;1012.5;;;16.6;79
54439;BME280;40347;53.848;27.498;2023-08-24T23:45:38;1012.5;;;16.6;78.8
54439;BME280;40347;53.848;27.498;2023-08-24T23:50:26;1012.5;;;16.5;78.9
54439;BME280;40347;53.848;27.498;2023-08-24T23:55:48;1012.5;;;16.6;79.3
